sensor_id;sensor_type;location;lat;lon;timestamp;P1;durP1;ratioP1;P2;durP2;ratioP2
21837;SDS011;11081;45.946;6.140;2023-03-01T00:01:46;32.90;;;19.23;;
21837;SDS011;11081;45.946;6.140;2023-03-01T00:04:14;27.97;;;19.40;;
21837;SDS011;11081;45.946;6.140;2023-03-01T00:06:42;29.03;;;19.23;;
21837;SDS011;11081;45.946;6.140;2023-03-01T00:09:12;29.30;;;19.77;;
21837;SDS011;11081;45.946;6.140;2023-03-01T00:11:40;28.77;;;19.10;;
21837;SDS011;11081;45.946;6.140;2023-03-01T00:14:10;27.73;;;18.60;;
21837;SDS011;11081;45.946;6.140;2023-03-01T00:16:39;30.47;;;19.50;;
21837;SDS011;11081;45.946;6.140;2023-03-01T00:19:10;29.63;;;19.83;;
21837;SDS011;11081;45.946;6.140;2023-03-01T00:21:40;28.87;;;19.73;;
21837;SDS011;11081;45.946;6.140;2023-03-01T00:24:09;31.03;;;20.83;;
21837;SDS011;11081;45.946;6.140;2023-03-01T00:26:39;32.63;;;19.50;;
21837;SDS011;11081;45.946;6.140;2023-03-01T00:29:07;27.10;;;18.93;;
21837;SDS011;11081;45.946;6.140;2023-03-01T00:31:36;28.30;;;19.33;;
21837;SDS011;11081;45.946;6.140;2023-03-01T00:34:04;30.80;;;20.33;;
21837;SDS011;11081;45.946;6.140;2023-03-01T00:36:33;28.70;;;19.17;;
21837;SDS011;11081;45.946;6.140;2023-03-01T00:39:02;28.13;;;19.07;;
21837;SDS011;11081;45.946;6.140;2023-03-01T00:41:31;30.27;;;19.60;;
21837;SDS011;11081;45.946;6.140;2023-03-01T00:44:01;29.50;;;19.37;;
21837;SDS011;11081;45.946;6.140;2023-03-01T00:46:29;30.93;;;19.30;;
21837;SDS011;11081;45.946;6.140;2023-03-01T00:48:59;32.37;;;19.33;;
21837;SDS011;11081;45.946;6.140;2023-03-01T00:51:28;31.47;;;19.80;;
21837;SDS011;11081;45.946;6.140;2023-03-01T00:53:57;29.20;;;19.23;;
21837;SDS011;11081;45.946;6.140;2023-03-01T00:56:28;30.70;;;20.37;;
21837;SDS011;11081;45.946;6.140;2023-03-01T00:58:57;30.90;;;20.00;;
21837;SDS011;11081;45.946;6.140;2023-03-01T01:01:25;29.07;;;18.93;;
21837;SDS011;11081;45.946;6.140;2023-03-01T01:03:57;31.80;;;20.43;;
21837;SDS011;11081;45.946;6.140;2023-03-01T01:06:28;32.70;;;20.83;;
21837;SDS011;11081;45.946;6.140;2023-03-01T01:08:58;30.37;;;20.00;;
21837;SDS011;11081;45.946;6.140;2023-03-01T01:11:27;30.23;;;20.60;;
21837;SDS011;11081;45.946;6.140;2023-03-01T01:13:57;32.10;;;20.83;;
21837;SDS011;11081;45.946;6.140;2023-03-01T01:16:28;30.77;;;20.93;;
21837;SDS011;11081;45.946;6.140;2023-03-01T01:18:57;31.47;;;20.43;;
21837;SDS011;11081;45.946;6.140;2023-03-01T01:21:28;31.43;;;20.67;;
21837;SDS011;11081;45.946;6.140;2023-03-01T01:23:56;29.83;;;20.57;;
21837;SDS011;11081;45.946;6.140;2023-03-01T01:26:25;32.50;;;20.10;;
21837;SDS011;11081;45.946;6.140;2023-03-01T01:28:55;29.10;;;20.23;;
21837;SDS011;11081;45.946;6.140;2023-03-01T01:31:23;32.03;;;19.60;;
21837;SDS011;11081;45.946;6.140;2023-03-01T01:33:52;29.23;;;19.33;;
21837;SDS011;11081;45.946;6.140;2023-03-01T01:36:21;32.97;;;19.50;;
21837;SDS011;11081;45.946;6.140;2023-03-01T01:38:51;31.70;;;20.80;;
21837;SDS011;11081;45.946;6.140;2023-03-01T01:41:19;27.47;;;18.50;;
21837;SDS011;11081;45.946;6.140;2023-03-01T01:43:48;30.60;;;20.03;;
21837;SDS011;11081;45.946;6.140;2023-03-01T01:46:37;30.27;;;20.30;;
21837;SDS011;11081;45.946;6.140;2023-03-01T01:49:10;30.70;;;19.57;;
21837;SDS011;11081;45.946;6.140;2023-03-01T01:51:55;29.47;;;19.67;;
21837;SDS011;11081;45.946;6.140;2023-03-01T01:54:33;31.50;;;19.83;;
21837;SDS011;11081;45.946;6.140;2023-03-01T01:57:08;30.50;;;20.03;;
21837;SDS011;11081;45.946;6.140;2023-03-01T01:59:41;29.23;;;20.60;;
21837;SDS011;11081;45.946;6.140;2023-03-01T02:02:13;28.03;;;20.17;;
21837;SDS011;11081;45.946;6.140;2023-03-01T02:04:41;30.33;;;20.20;;
21837;SDS011;11081;45.946;6.140;2023-03-01T02:07:13;34.50;;;21.27;;
21837;SDS011;11081;45.946;6.140;2023-03-01T02:09:46;32.33;;;21.23;;
21837;SDS011;11081;45.946;6.140;2023-03-01T02:12:17;30.70;;;20.20;;
21837;SDS011;11081;45.946;6.140;2023-03-01T02:14:47;30.67;;;21.00;;
21837;SDS011;11081;45.946;6.140;2023-03-01T02:17:16;32.80;;;20.97;;
21837;SDS011;11081;45.946;6.140;2023-03-01T02:19:49;30.13;;;20.17;;
21837;SDS011;11081;45.946;6.140;2023-03-01T02:22:28;33.90;;;21.07;;
21837;SDS011;11081;45.946;6.140;2023-03-01T02:25:03;30.07;;;20.13;;
21837;SDS011;11081;45.946;6.140;2023-03-01T02:27:43;31.83;;;20.63;;
21837;SDS011;11081;45.946;6.140;2023-03-01T02:30:19;31.43;;;20.93;;
21837;SDS011;11081;45.946;6.140;2023-03-01T02:32:51;32.57;;;21.23;;
21837;SDS011;11081;45.946;6.140;2023-03-01T02:35:19;29.80;;;19.57;;
21837;SDS011;11081;45.946;6.140;2023-03-01T02:37:48;33.37;;;21.53;;
21837;SDS011;11081;45.946;6.140;2023-03-01T02:40:17;31.00;;;21.07;;
21837;SDS011;11081;45.946;6.140;2023-03-01T02:42:49;30.07;;;20.83;;
21837;SDS011;11081;45.946;6.140;2023-03-01T02:45:21;32.93;;;21.03;;
21837;SDS011;11081;45.946;6.140;2023-03-01T02:47:49;30.17;;;20.63;;
21837;SDS011;11081;45.946;6.140;2023-03-01T02:50:24;31.57;;;20.40;;
21837;SDS011;11081;45.946;6.140;2023-03-01T02:53:08;31.97;;;20.63;;
21837;SDS011;11081;45.946;6.140;2023-03-01T02:55:42;30.47;;;20.87;;
21837;SDS011;11081;45.946;6.140;2023-03-01T02:58:10;30.27;;;19.87;;
21837;SDS011;11081;45.946;6.140;2023-03-01T03:00:41;34.93;;;22.00;;
21837;SDS011;11081;45.946;6.140;2023-03-01T03:03:13;32.80;;;21.50;;
21837;SDS011;11081;45.946;6.140;2023-03-01T03:05:42;31.40;;;21.80;;
21837;SDS011;11081;45.946;6.140;2023-03-01T03:08:10;35.53;;;22.90;;
21837;SDS011;11081;45.946;6.140;2023-03-01T03:10:39;31.83;;;20.70;;
21837;SDS011;11081;45.946;6.140;2023-03-01T03:13:10;36.73;;;21.53;;
21837;SDS011;11081;45.946;6.140;2023-03-01T03:15:40;31.87;;;21.80;;
21837;SDS011;11081;45.946;6.140;2023-03-01T03:18:10;31.17;;;20.73;;
21837;SDS011;11081;45.946;6.140;2023-03-01T03:20:40;29.97;;;20.10;;
21837;SDS011;11081;45.946;6.140;2023-03-01T03:23:09;33.67;;;23.03;;
21837;SDS011;11081;45.946;6.140;2023-03-01T03:25:38;32.80;;;21.57;;
21837;SDS011;11081;45.946;6.140;2023-03-01T03:28:06;36.60;;;22.70;;
21837;SDS011;11081;45.946;6.140;2023-03-01T03:30:37;33.00;;;22.73;;
21837;SDS011;11081;45.946;6.140;2023-03-01T03:33:08;34.70;;;21.90;;
21837;SDS011;11081;45.946;6.140;2023-03-01T03:35:40;34.67;;;22.10;;
21837;SDS011;11081;45.946;6.140;2023-03-01T03:38:10;33.30;;;21.50;;
21837;SDS011;11081;45.946;6.140;2023-03-01T03:40:44;34.27;;;21.90;;
21837;SDS011;11081;45.946;6.140;2023-03-01T03:43:14;33.73;;;21.63;;
21837;SDS011;11081;45.946;6.140;2023-03-01T03:45:43;32.90;;;21.57;;
21837;SDS011;11081;45.946;6.140;2023-03-01T03:48:14;35.63;;;23.17;;
21837;SDS011;11081;45.946;6.140;2023-03-01T03:50:46;34.17;;;21.97;;
21837;SDS011;11081;45.946;6.140;2023-03-01T03:53:15;32.47;;;21.90;;
21837;SDS011;11081;45.946;6.140;2023-03-01T03:55:44;33.70;;;21.67;;
21837;SDS011;11081;45.946;6.140;2023-03-01T03:58:15;36.63;;;23.33;;
21837;SDS011;11081;45.946;6.140;2023-03-01T04:00:46;32.33;;;20.60;;
21837;SDS011;11081;45.946;6.140;2023-03-01T04:03:17;30.70;;;20.90;;
21837;SDS011;11081;45.946;6.140;2023-03-01T04:05:46;33.13;;;21.93;;
21837;SDS011;11081;45.946;6.140;2023-03-01T04:08:16;33.17;;;21.97;;
21837;SDS011;11081;45.946;6.140;2023-03-01T04:10:46;35.60;;;22.73;;
21837;SDS011;11081;45.946;6.140;2023-03-01T04:13:16;33.67;;;22.73;;
21837;SDS011;11081;45.946;6.140;2023-03-01T04:15:46;33.23;;;21.10;;
21837;SDS011;11081;45.946;6.140;2023-03-01T04:18:17;35.87;;;23.07;;
21837;SDS011;11081;45.946;6.140;2023-03-01T04:20:47;34.93;;;22.40;;
21837;SDS011;11081;45.946;6.140;2023-03-01T04:23:16;35.70;;;22.60;;
21837;SDS011;11081;45.946;6.140;2023-03-01T04:25:47;34.93;;;22.33;;
21837;SDS011;11081;45.946;6.140;2023-03-01T04:28:20;30.13;;;19.70;;
21837;SDS011;11081;45.946;6.140;2023-03-01T04:30:50;32.60;;;21.77;;
21837;SDS011;11081;45.946;6.140;2023-03-01T04:33:21;34.20;;;22.63;;
21837;SDS011;11081;45.946;6.140;2023-03-01T04:35:50;35.27;;;23.00;;
21837;SDS011;11081;45.946;6.140;2023-03-01T04:38:18;31.10;;;20.47;;
21837;SDS011;11081;45.946;6.140;2023-03-01T04:40:47;35.07;;;21.47;;
21837;SDS011;11081;45.946;6.140;2023-03-01T04:43:15;37.47;;;22.20;;
21837;SDS011;11081;45.946;6.140;2023-03-01T04:45:44;34.90;;;21.67;;
21837;SDS011;11081;45.946;6.140;2023-03-01T04:48:12;32.97;;;21.60;;
21837;SDS011;11081;45.946;6.140;2023-03-01T04:50:41;33.00;;;21.47;;
21837;SDS011;11081;45.946;6.140;2023-03-01T04:53:09;36.53;;;21.53;;
21837;SDS011;11081;45.946;6.140;2023-03-01T04:55:37;32.80;;;21.43;;
21837;SDS011;11081;45.946;6.140;2023-03-01T04:58:04;39.23;;;23.07;;
21837;SDS011;11081;45.946;6.140;2023-03-01T05:00:32;37.33;;;22.73;;
21837;SDS011;11081;45.946;6.140;2023-03-01T05:03:00;33.00;;;21.47;;
21837;SDS011;11081;45.946;6.140;2023-03-01T05:05:30;30.90;;;20.87;;
21837;SDS011;11081;45.946;6.140;2023-03-01T05:08:02;33.23;;;21.97;;
21837;SDS011;11081;45.946;6.140;2023-03-01T05:10:32;38.17;;;21.93;;
21837;SDS011;11081;45.946;6.140;2023-03-01T05:13:02;32.70;;;22.63;;
21837;SDS011;11081;45.946;6.140;2023-03-01T05:15:31;38.47;;;22.40;;
21837;SDS011;11081;45.946;6.140;2023-03-01T05:17:59;34.67;;;22.40;;
21837;SDS011;11081;45.946;6.140;2023-03-01T05:20:28;32.23;;;21.80;;
21837;SDS011;11081;45.946;6.140;2023-03-01T05:22:57;31.20;;;20.83;;
21837;SDS011;11081;45.946;6.140;2023-03-01T05:25:27;35.17;;;22.60;;
21837;SDS011;11081;45.946;6.140;2023-03-01T05:27:59;37.00;;;22.60;;
21837;SDS011;11081;45.946;6.140;2023-03-01T05:30:31;32.90;;;21.53;;
21837;SDS011;11081;45.946;6.140;2023-03-01T05:32:59;38.20;;;22.90;;
21837;SDS011;11081;45.946;6.140;2023-03-01T05:35:27;37.50;;;23.17;;
21837;SDS011;11081;45.946;6.140;2023-03-01T05:37:59;31.70;;;21.33;;
21837;SDS011;11081;45.946;6.140;2023-03-01T05:40:28;37.57;;;22.83;;
21837;SDS011;11081;45.946;6.140;2023-03-01T05:42:56;36.60;;;22.90;;
21837;SDS011;11081;45.946;6.140;2023-03-01T05:45:24;37.13;;;22.77;;
21837;SDS011;11081;45.946;6.140;2023-03-01T05:47:54;36.17;;;23.00;;
21837;SDS011;11081;45.946;6.140;2023-03-01T05:50:23;32.93;;;22.03;;
21837;SDS011;11081;45.946;6.140;2023-03-01T05:52:56;36.27;;;23.67;;
21837;SDS011;11081;45.946;6.140;2023-03-01T05:55:25;34.73;;;22.17;;
21837;SDS011;11081;45.946;6.140;2023-03-01T05:57:57;36.37;;;23.50;;
21837;SDS011;11081;45.946;6.140;2023-03-01T06:00:26;37.33;;;22.60;;
21837;SDS011;11081;45.946;6.140;2023-03-01T06:02:55;36.53;;;23.33;;
21837;SDS011;11081;45.946;6.140;2023-03-01T06:05:23;35.63;;;21.83;;
21837;SDS011;11081;45.946;6.140;2023-03-01T06:07:52;36.80;;;22.80;;
21837;SDS011;11081;45.946;6.140;2023-03-01T06:10:20;33.57;;;22.03;;
21837;SDS011;11081;45.946;6.140;2023-03-01T06:12:51;36.00;;;21.10;;
21837;SDS011;11081;45.946;6.140;2023-03-01T06:15:19;33.97;;;21.60;;
21837;SDS011;11081;45.946;6.140;2023-03-01T06:17:47;35.10;;;21.60;;
21837;SDS011;11081;45.946;6.140;2023-03-01T06:20:17;36.80;;;23.07;;
21837;SDS011;11081;45.946;6.140;2023-03-01T06:22:47;34.40;;;22.50;;
21837;SDS011;11081;45.946;6.140;2023-03-01T06:25:17;35.80;;;20.83;;
21837;SDS011;11081;45.946;6.140;2023-03-01T06:27:46;35.97;;;22.97;;
21837;SDS011;11081;45.946;6.140;2023-03-01T06:30:18;35.80;;;22.23;;
21837;SDS011;11081;45.946;6.140;2023-03-01T06:32:47;32.93;;;22.10;;
21837;SDS011;11081;45.946;6.140;2023-03-01T06:35:16;37.53;;;22.23;;
21837;SDS011;11081;45.946;6.140;2023-03-01T06:37:45;37.30;;;22.53;;
21837;SDS011;11081;45.946;6.140;2023-03-01T06:40:14;35.77;;;22.73;;
21837;SDS011;11081;45.946;6.140;2023-03-01T06:42:43;34.87;;;22.23;;
21837;SDS011;11081;45.946;6.140;2023-03-01T06:45:16;34.40;;;22.33;;
21837;SDS011;11081;45.946;6.140;2023-03-01T06:47:46;32.37;;;21.17;;
21837;SDS011;11081;45.946;6.140;2023-03-01T06:50:14;35.00;;;21.77;;
21837;SDS011;11081;45.946;6.140;2023-03-01T06:52:43;36.67;;;22.17;;
21837;SDS011;11081;45.946;6.140;2023-03-01T06:55:12;31.50;;;21.37;;
21837;SDS011;11081;45.946;6.140;2023-03-01T06:57:40;34.60;;;21.67;;
21837;SDS011;11081;45.946;6.140;2023-03-01T07:00:09;35.40;;;23.43;;
21837;SDS011;11081;45.946;6.140;2023-03-01T07:02:39;33.97;;;22.23;;
21837;SDS011;11081;45.946;6.140;2023-03-01T07:05:07;33.90;;;21.93;;
21837;SDS011;11081;45.946;6.140;2023-03-01T07:07:35;35.07;;;22.60;;
21837;SDS011;11081;45.946;6.140;2023-03-01T07:10:04;34.93;;;22.80;;
21837;SDS011;11081;45.946;6.140;2023-03-01T07:12:32;35.43;;;23.00;;
21837;SDS011;11081;45.946;6.140;2023-03-01T07:15:00;32.47;;;22.17;;
21837;SDS011;11081;45.946;6.140;2023-03-01T07:17:28;34.50;;;22.50;;
21837;SDS011;11081;45.946;6.140;2023-03-01T07:19:58;38.47;;;22.93;;
21837;SDS011;11081;45.946;6.140;2023-03-01T07:22:26;36.03;;;22.60;;
21837;SDS011;11081;45.946;6.140;2023-03-01T07:24:54;40.30;;;22.47;;
21837;SDS011;11081;45.946;6.140;2023-03-01T07:27:22;35.10;;;22.23;;
21837;SDS011;11081;45.946;6.140;2023-03-01T07:29:50;34.60;;;21.63;;
21837;SDS011;11081;45.946;6.140;2023-03-01T07:32:18;35.23;;;21.73;;
21837;SDS011;11081;45.946;6.140;2023-03-01T07:34:46;35.37;;;21.67;;
21837;SDS011;11081;45.946;6.140;2023-03-01T07:37:15;34.67;;;21.90;;
21837;SDS011;11081;45.946;6.140;2023-03-01T07:39:43;35.70;;;22.87;;
21837;SDS011;11081;45.946;6.140;2023-03-01T07:42:11;37.83;;;22.07;;
21837;SDS011;11081;45.946;6.140;2023-03-01T07:44:39;34.37;;;22.13;;
21837;SDS011;11081;45.946;6.140;2023-03-01T07:47:07;34.60;;;22.33;;
21837;SDS011;11081;45.946;6.140;2023-03-01T07:49:35;34.00;;;21.87;;
21837;SDS011;11081;45.946;6.140;2023-03-01T07:52:03;34.43;;;22.90;;
21837;SDS011;11081;45.946;6.140;2023-03-01T07:54:33;35.33;;;22.53;;
21837;SDS011;11081;45.946;6.140;2023-03-01T07:57:01;38.33;;;22.90;;
21837;SDS011;11081;45.946;6.140;2023-03-01T07:59:28;37.63;;;23.30;;
21837;SDS011;11081;45.946;6.140;2023-03-01T08:01:56;37.50;;;22.83;;
21837;SDS011;11081;45.946;6.140;2023-03-01T08:04:25;33.07;;;21.33;;
21837;SDS011;11081;45.946;6.140;2023-03-01T08:06:53;37.27;;;22.67;;
21837;SDS011;11081;45.946;6.140;2023-03-01T08:09:21;30.87;;;20.67;;
21837;SDS011;11081;45.946;6.140;2023-03-01T08:11:51;40.67;;;23.33;;
21837;SDS011;11081;45.946;6.140;2023-03-01T08:14:19;33.37;;;20.70;;
21837;SDS011;11081;45.946;6.140;2023-03-01T08:16:48;33.53;;;20.63;;
21837;SDS011;11081;45.946;6.140;2023-03-01T08:19:17;34.27;;;22.40;;
21837;SDS011;11081;45.946;6.140;2023-03-01T08:21:45;32.77;;;20.53;;
21837;SDS011;11081;45.946;6.140;2023-03-01T08:24:13;37.47;;;22.00;;
21837;SDS011;11081;45.946;6.140;2023-03-01T08:26:41;35.73;;;22.67;;
21837;SDS011;11081;45.946;6.140;2023-03-01T08:29:10;41.27;;;23.30;;
21837;SDS011;11081;45.946;6.140;2023-03-01T08:31:39;36.93;;;22.20;;
21837;SDS011;11081;45.946;6.140;2023-03-01T08:34:08;36.10;;;22.30;;
21837;SDS011;11081;45.946;6.140;2023-03-01T08:36:39;34.80;;;22.27;;
21837;SDS011;11081;45.946;6.140;2023-03-01T08:39:09;35.67;;;22.27;;
21837;SDS011;11081;45.946;6.140;2023-03-01T08:41:38;32.97;;;20.67;;
21837;SDS011;11081;45.946;6.140;2023-03-01T08:44:07;34.53;;;21.67;;
21837;SDS011;11081;45.946;6.140;2023-03-01T08:46:37;34.47;;;21.27;;
21837;SDS011;11081;45.946;6.140;2023-03-01T08:49:07;38.33;;;22.07;;
21837;SDS011;11081;45.946;6.140;2023-03-01T08:51:36;35.93;;;21.80;;
21837;SDS011;11081;45.946;6.140;2023-03-01T08:54:05;35.47;;;21.43;;
21837;SDS011;11081;45.946;6.140;2023-03-01T08:56:34;33.63;;;21.97;;
21837;SDS011;11081;45.946;6.140;2023-03-01T08:59:02;30.83;;;21.00;;
21837;SDS011;11081;45.946;6.140;2023-03-01T09:01:30;33.10;;;20.27;;
21837;SDS011;11081;45.946;6.140;2023-03-01T09:03:59;31.63;;;21.10;;
21837;SDS011;11081;45.946;6.140;2023-03-01T09:06:29;35.03;;;22.03;;
21837;SDS011;11081;45.946;6.140;2023-03-01T09:08:58;33.93;;;21.63;;
21837;SDS011;11081;45.946;6.140;2023-03-01T09:11:27;32.03;;;21.07;;
21837;SDS011;11081;45.946;6.140;2023-03-01T09:13:55;34.30;;;22.03;;
21837;SDS011;11081;45.946;6.140;2023-03-01T09:16:23;36.40;;;21.83;;
21837;SDS011;11081;45.946;6.140;2023-03-01T09:18:52;33.77;;;21.10;;
21837;SDS011;11081;45.946;6.140;2023-03-01T09:21:23;34.33;;;22.23;;
21837;SDS011;11081;45.946;6.140;2023-03-01T09:24:06;34.30;;;21.53;;
21837;SDS011;11081;45.946;6.140;2023-03-01T09:26:34;34.67;;;21.27;;
21837;SDS011;11081;45.946;6.140;2023-03-01T09:29:02;37.10;;;22.43;;
21837;SDS011;11081;45.946;6.140;2023-03-01T09:31:30;36.30;;;22.87;;
21837;SDS011;11081;45.946;6.140;2023-03-01T09:33:58;36.03;;;22.33;;
21837;SDS011;11081;45.946;6.140;2023-03-01T09:36:27;34.37;;;21.73;;
21837;SDS011;11081;45.946;6.140;2023-03-01T09:38:57;34.70;;;21.27;;
21837;SDS011;11081;45.946;6.140;2023-03-01T09:41:30;34.20;;;20.77;;
21837;SDS011;11081;45.946;6.140;2023-03-01T09:44:08;36.10;;;23.07;;
21837;SDS011;11081;45.946;6.140;2023-03-01T09:46:42;35.73;;;22.10;;
21837;SDS011;11081;45.946;6.140;2023-03-01T09:49:14;36.73;;;22.20;;
21837;SDS011;11081;45.946;6.140;2023-03-01T09:51:57;37.73;;;21.90;;
21837;SDS011;11081;45.946;6.140;2023-03-01T09:54:28;33.50;;;20.67;;
21837;SDS011;11081;45.946;6.140;2023-03-01T09:56:59;35.50;;;20.83;;
21837;SDS011;11081;45.946;6.140;2023-03-01T09:59:37;32.40;;;21.03;;
21837;SDS011;11081;45.946;6.140;2023-03-01T10:02:21;35.60;;;21.43;;
21837;SDS011;11081;45.946;6.140;2023-03-01T10:04:54;36.00;;;21.93;;
21837;SDS011;11081;45.946;6.140;2023-03-01T10:07:29;35.20;;;22.07;;
21837;SDS011;11081;45.946;6.140;2023-03-01T10:10:04;34.73;;;21.90;;
21837;SDS011;11081;45.946;6.140;2023-03-01T10:12:34;36.43;;;21.23;;
21837;SDS011;11081;45.946;6.140;2023-03-01T10:15:05;33.23;;;21.60;;
21837;SDS011;11081;45.946;6.140;2023-03-01T10:17:39;37.37;;;21.53;;
21837;SDS011;11081;45.946;6.140;2023-03-01T10:20:16;33.23;;;21.30;;
21837;SDS011;11081;45.946;6.140;2023-03-01T10:22:48;34.90;;;22.30;;
21837;SDS011;11081;45.946;6.140;2023-03-01T10:25:25;36.93;;;22.20;;
21837;SDS011;11081;45.946;6.140;2023-03-01T10:28:10;35.73;;;22.27;;
21837;SDS011;11081;45.946;6.140;2023-03-01T10:30:45;34.57;;;21.50;;
21837;SDS011;11081;45.946;6.140;2023-03-01T10:33:14;37.40;;;21.53;;
21837;SDS011;11081;45.946;6.140;2023-03-01T10:35:47;39.90;;;22.00;;
21837;SDS011;11081;45.946;6.140;2023-03-01T10:38:17;34.60;;;21.43;;
21837;SDS011;11081;45.946;6.140;2023-03-01T10:40:51;36.33;;;22.23;;
21837;SDS011;11081;45.946;6.140;2023-03-01T10:43:21;36.77;;;21.43;;
21837;SDS011;11081;45.946;6.140;2023-03-01T10:45:49;36.37;;;20.93;;
21837;SDS011;11081;45.946;6.140;2023-03-01T10:48:19;37.93;;;22.67;;
21837;SDS011;11081;45.946;6.140;2023-03-01T10:50:51;36.23;;;21.57;;
21837;SDS011;11081;45.946;6.140;2023-03-01T10:53:34;41.50;;;23.00;;
21837;SDS011;11081;45.946;6.140;2023-03-01T10:56:05;32.67;;;20.70;;
21837;SDS011;11081;45.946;6.140;2023-03-01T10:58:35;35.00;;;21.47;;
21837;SDS011;11081;45.946;6.140;2023-03-01T11:01:04;35.13;;;21.50;;
21837;SDS011;11081;45.946;6.140;2023-03-01T11:03:34;39.10;;;23.47;;
21837;SDS011;11081;45.946;6.140;2023-03-01T11:06:05;35.23;;;21.67;;
21837;SDS011;11081;45.946;6.140;2023-03-01T11:08:48;34.77;;;21.60;;
21837;SDS011;11081;45.946;6.140;2023-03-01T11:11:20;39.30;;;22.60;;
21837;SDS011;11081;45.946;6.140;2023-03-01T11:13:52;34.83;;;21.77;;
21837;SDS011;11081;45.946;6.140;2023-03-01T11:16:24;38.57;;;22.13;;
21837;SDS011;11081;45.946;6.140;2023-03-01T11:19:12;34.93;;;20.87;;
21837;SDS011;11081;45.946;6.140;2023-03-01T11:21:46;33.50;;;21.13;;
21837;SDS011;11081;45.946;6.140;2023-03-01T11:24:22;42.93;;;22.43;;
21837;SDS011;11081;45.946;6.140;2023-03-01T11:26:56;34.13;;;21.57;;
21837;SDS011;11081;45.946;6.140;2023-03-01T11:29:28;35.73;;;21.87;;
21837;SDS011;11081;45.946;6.140;2023-03-01T11:32:13;38.23;;;22.10;;
21837;SDS011;11081;45.946;6.140;2023-03-01T11:34:43;36.03;;;22.43;;
21837;SDS011;11081;45.946;6.140;2023-03-01T11:37:20;35.83;;;22.03;;
21837;SDS011;11081;45.946;6.140;2023-03-01T11:39:57;33.47;;;21.00;;
21837;SDS011;11081;45.946;6.140;2023-03-01T11:42:36;34.13;;;20.60;;
21837;SDS011;11081;45.946;6.140;2023-03-01T11:45:11;38.87;;;21.60;;
21837;SDS011;11081;45.946;6.140;2023-03-01T11:50:33;35.83;;;21.90;;
21837;SDS011;11081;45.946;6.140;2023-03-01T11:53:13;34.17;;;22.03;;
21837;SDS011;11081;45.946;6.140;2023-03-01T11:56:11;33.30;;;21.30;;
21837;SDS011;11081;45.946;6.140;2023-03-01T11:58:53;37.13;;;21.83;;
21837;SDS011;11081;45.946;6.140;2023-03-01T12:01:44;34.53;;;21.40;;
21837;SDS011;11081;45.946;6.140;2023-03-01T12:07:24;35.40;;;22.30;;
21837;SDS011;11081;45.946;6.140;2023-03-01T12:10:14;34.07;;;21.23;;
21837;SDS011;11081;45.946;6.140;2023-03-01T12:15:54;37.43;;;22.50;;
21837;SDS011;11081;45.946;6.140;2023-03-01T12:19:08;35.07;;;21.70;;
21837;SDS011;11081;45.946;6.140;2023-03-01T12:21:53;38.87;;;23.10;;
21837;SDS011;11081;45.946;6.140;2023-03-01T12:24:38;41.07;;;23.77;;
21837;SDS011;11081;45.946;6.140;2023-03-01T12:27:22;34.33;;;21.47;;
21837;SDS011;11081;45.946;6.140;2023-03-01T12:29:59;35.90;;;22.03;;
21837;SDS011;11081;45.946;6.140;2023-03-01T12:32:40;40.57;;;22.80;;
21837;SDS011;11081;45.946;6.140;2023-03-01T12:35:35;39.93;;;23.90;;
21837;SDS011;11081;45.946;6.140;2023-03-01T12:38:12;38.17;;;22.53;;
21837;SDS011;11081;45.946;6.140;2023-03-01T12:41:04;37.87;;;21.70;;
21837;SDS011;11081;45.946;6.140;2023-03-01T12:43:42;36.87;;;21.47;;
21837;SDS011;11081;45.946;6.140;2023-03-01T12:46:41;37.43;;;22.07;;
21837;SDS011;11081;45.946;6.140;2023-03-01T12:49:39;35.37;;;21.63;;
21837;SDS011;11081;45.946;6.140;2023-03-01T12:52:11;36.00;;;22.30;;
21837;SDS011;11081;45.946;6.140;2023-03-01T12:54:44;34.53;;;21.13;;
21837;SDS011;11081;45.946;6.140;2023-03-01T12:57:15;35.27;;;21.17;;
21837;SDS011;11081;45.946;6.140;2023-03-01T12:59:51;34.40;;;21.37;;
21837;SDS011;11081;45.946;6.140;2023-03-01T13:02:36;35.10;;;22.07;;
21837;SDS011;11081;45.946;6.140;2023-03-01T13:05:19;37.73;;;21.73;;
21837;SDS011;11081;45.946;6.140;2023-03-01T13:07:58;33.23;;;20.60;;
21837;SDS011;11081;45.946;6.140;2023-03-01T13:10:34;39.60;;;22.83;;
21837;SDS011;11081;45.946;6.140;2023-03-01T13:13:14;32.53;;;20.93;;
21837;SDS011;11081;45.946;6.140;2023-03-01T13:15:47;34.30;;;21.03;;
21837;SDS011;11081;45.946;6.140;2023-03-01T13:18:28;35.23;;;21.33;;
21837;SDS011;11081;45.946;6.140;2023-03-01T13:20:59;37.10;;;21.10;;
21837;SDS011;11081;45.946;6.140;2023-03-01T13:23:30;35.33;;;20.97;;
21837;SDS011;11081;45.946;6.140;2023-03-01T13:26:05;31.03;;;20.63;;
21837;SDS011;11081;45.946;6.140;2023-03-01T13:28:39;38.00;;;22.00;;
21837;SDS011;11081;45.946;6.140;2023-03-01T13:37:28;33.23;;;20.70;;
21837;SDS011;11081;45.946;6.140;2023-03-01T13:39:59;35.07;;;21.47;;
21837;SDS011;11081;45.946;6.140;2023-03-01T13:42:34;36.30;;;21.30;;
21837;SDS011;11081;45.946;6.140;2023-03-01T13:45:31;34.37;;;20.77;;
21837;SDS011;11081;45.946;6.140;2023-03-01T13:48:09;33.63;;;20.77;;
21837;SDS011;11081;45.946;6.140;2023-03-01T13:50:45;33.97;;;20.30;;
21837;SDS011;11081;45.946;6.140;2023-03-01T13:53:18;35.30;;;21.63;;
21837;SDS011;11081;45.946;6.140;2023-03-01T13:55:50;38.43;;;21.37;;
21837;SDS011;11081;45.946;6.140;2023-03-01T13:58:22;37.43;;;21.73;;
21837;SDS011;11081;45.946;6.140;2023-03-01T14:00:55;34.13;;;21.37;;
21837;SDS011;11081;45.946;6.140;2023-03-01T14:03:25;37.00;;;21.30;;
21837;SDS011;11081;45.946;6.140;2023-03-01T14:05:59;36.93;;;21.27;;
21837;SDS011;11081;45.946;6.140;2023-03-01T14:08:40;34.07;;;21.57;;
21837;SDS011;11081;45.946;6.140;2023-03-01T14:11:17;34.33;;;21.50;;
21837;SDS011;11081;45.946;6.140;2023-03-01T14:14:00;35.00;;;20.50;;
21837;SDS011;11081;45.946;6.140;2023-03-01T14:16:39;35.50;;;20.90;;
21837;SDS011;11081;45.946;6.140;2023-03-01T14:19:15;35.57;;;21.40;;
21837;SDS011;11081;45.946;6.140;2023-03-01T14:22:00;38.63;;;22.10;;
21837;SDS011;11081;45.946;6.140;2023-03-01T14:24:38;34.73;;;21.77;;
21837;SDS011;11081;45.946;6.140;2023-03-01T14:27:12;33.23;;;21.57;;
21837;SDS011;11081;45.946;6.140;2023-03-01T14:29:41;33.93;;;20.70;;
21837;SDS011;11081;45.946;6.140;2023-03-01T14:32:10;35.97;;;20.47;;
21837;SDS011;11081;45.946;6.140;2023-03-01T14:34:43;35.17;;;21.00;;
21837;SDS011;11081;45.946;6.140;2023-03-01T14:37:20;38.53;;;20.43;;
21837;SDS011;11081;45.946;6.140;2023-03-01T14:39:50;36.97;;;20.90;;
21837;SDS011;11081;45.946;6.140;2023-03-01T14:42:19;31.83;;;18.90;;
21837;SDS011;11081;45.946;6.140;2023-03-01T14:44:50;31.77;;;19.73;;
21837;SDS011;11081;45.946;6.140;2023-03-01T14:47:23;38.07;;;21.73;;
21837;SDS011;11081;45.946;6.140;2023-03-01T14:49:57;33.97;;;19.87;;
21837;SDS011;11081;45.946;6.140;2023-03-01T14:52:31;32.50;;;20.70;;
21837;SDS011;11081;45.946;6.140;2023-03-01T14:55:02;34.80;;;21.03;;
21837;SDS011;11081;45.946;6.140;2023-03-01T14:57:33;34.23;;;19.70;;
21837;SDS011;11081;45.946;6.140;2023-03-01T15:00:02;33.40;;;19.40;;
21837;SDS011;11081;45.946;6.140;2023-03-01T15:02:36;32.23;;;20.30;;
21837;SDS011;11081;45.946;6.140;2023-03-01T15:05:06;34.87;;;21.13;;